Airfield :
LOGIN :

Register | Disclaimer

   EN    FR    IT 

 










Legend :    VFR   Marginal VFR   IFR   Intensive IFR   Very Intensive IFR
Visi :
Ceiling :
>= 8 km
>= 3000ft
5 to 8 km
1000 to 3000 ft
1500m to 5 km
500 to 1000 ft
800 to 1500m
200 to 500 ft
< 800m
< 200 ft
Symbols :   Thunderstorms  Fog  Heavy snow  Heavy precipitations  Wind > 20 kt
SIGMETs :     Misc.  Thunderstorms  Icing  Turbulence  Mountain Waves  Volcanic Ashes







- Airport Elevation : 821 ft
- IATA code : LYS
- Download approach charts


LFLL - Lyon St Exupéry / Satolas

CURRENT METAR :
  • 230130Z 18005KT CAVOK 18/08 Q1018 NOSIG

EXPIRED METARs :
  • 230100Z 18006KT CAVOK 18/08 Q1018 NOSIG
  • 230030Z 17007KT CAVOK 18/08 Q1018 NOSIG
  • 230000Z 16008KT CAVOK 19/07 Q1018 NOSIG
  • 222330Z 18011KT CAVOK 19/08 Q1018 NOSIG
  • 222300Z 18010KT CAVOK 19/07 Q1017 NOSIG

TAF TAF LFLL
Valid from the 23 at 00:00 until the 24 at 06:00 UTC


222300Z 2300/2406 18009KT CAVOK
PROB30
TEMPO 2305/2308 -SHRA SCT060TCU
TEMPO 2311/2317 VRB15KT SHRA SCT045TCU BKN070
PROB40
TEMPO 2311/2314 VRB15G25KT 4000 TSRA BKN040CB
BECMG 2317/2319 VRB02KT
PROB40 2402/2406 4000 MIFG
No reported NOTAMs for that airfield.



MET'MAP, your aeronautical weather chart ! - Copyright ORBIFLY December 2007 - Disclaimer

ORBIFLY MET'MAP TEAM :

Programming & Development : Alexandra Zaïnal
Concept & Development : Baudouin d'Aumeries
Co-Development & Prog : Marc-Olivier Méhu
Technical & hardware support : Manuel Goepfert

Contact : metmap@orbifly.com




SOURCES & CREDITS :

   NOAA